createdAt,value
2019-03-01T00:00:18.195Z,12.66
2019-03-01T00:01:18.213Z,12.60
2019-03-01T00:02:18.226Z,12.49
2019-03-01T00:03:18.264Z,12.57
2019-03-01T00:04:18.287Z,12.37
2019-03-01T00:05:18.284Z,12.23
2019-03-01T00:06:18.297Z,12.33
2019-03-01T00:07:18.315Z,12.39
2019-03-01T00:08:18.339Z,12.39
2019-03-01T00:09:18.353Z,12.21
2019-03-01T00:11:18.382Z,12.45
2019-03-01T00:12:18.405Z,12.27
2019-03-01T00:13:18.425Z,12.20
2019-03-01T00:14:18.435Z,12.27
2019-03-01T00:15:18.461Z,12.16
2019-03-01T00:16:18.468Z,12.05
2019-03-01T00:17:18.488Z,12.15
2019-03-01T00:18:18.512Z,12.39
2019-03-01T00:19:18.538Z,12.41
2019-03-01T00:20:18.548Z,12.23
2019-03-01T00:21:18.556Z,12.08
2019-03-01T00:22:18.602Z,12.19
2019-03-01T00:23:18.587Z,12.29
2019-03-01T00:24:18.639Z,12.34
2019-03-01T00:25:18.649Z,12.20
2019-03-01T00:27:18.662Z,12.29
2019-03-01T00:28:18.694Z,12.42
2019-03-01T00:29:18.692Z,12.34
2019-03-01T00:30:18.719Z,12.12
2019-03-01T00:31:18.741Z,12.21
2019-03-01T00:32:18.752Z,12.12
2019-03-01T00:33:18.774Z,12.21
2019-03-01T00:34:18.808Z,12.38
2019-03-01T00:35:18.809Z,12.33
2019-03-01T00:36:18.815Z,12.44
2019-03-01T00:37:18.840Z,12.42
2019-03-01T00:38:18.847Z,12.46
2019-03-01T00:39:18.867Z,12.23
2019-03-01T00:40:18.880Z,11.96
2019-03-01T00:41:18.981Z,11.99
2019-03-01T00:42:18.913Z,12.29
2019-03-01T00:43:18.946Z,12.16
2019-03-01T00:44:18.974Z,12.23
2019-03-01T00:45:18.967Z,12.30
2019-03-01T00:46:18.995Z,12.06
2019-03-01T00:47:19.000Z,11.97
2019-03-01T00:48:19.023Z,11.72
2019-03-01T00:49:19.036Z,11.78
2019-03-01T00:50:19.072Z,12.11
2019-03-01T00:51:19.099Z,12.27
2019-03-01T00:52:19.087Z,12.41
2019-03-01T00:53:19.125Z,12.19
2019-03-01T00:54:19.122Z,12.39
2019-03-01T00:55:19.141Z,12.41
2019-03-01T00:56:19.164Z,12.41
2019-03-01T00:57:19.169Z,12.54
2019-03-01T00:58:19.195Z,12.45
2019-03-01T00:59:19.209Z,12.44
2019-03-01T01:00:19.228Z,12.39
2019-03-01T01:01:19.244Z,12.41
2019-03-01T01:02:19.314Z,12.12
2019-03-01T01:03:19.278Z,12.09
2019-03-01T01:04:19.303Z,12.13
2019-03-01T01:05:19.314Z,12.26
2019-03-01T01:06:19.346Z,12.15
2019-03-01T01:07:19.342Z,12.15
2019-03-01T01:08:19.361Z,12.16
2019-03-01T01:09:19.378Z,12.12
2019-03-01T01:10:19.396Z,12.23
2019-03-01T01:11:19.420Z,12.37
2019-03-01T01:12:19.436Z,12.42
2019-03-01T01:13:19.451Z,12.15
2019-03-01T01:14:19.484Z,12.26
2019-03-01T01:15:19.487Z,12.24
2019-03-01T01:16:19.501Z,12.23
2019-03-01T01:17:19.521Z,12.33
2019-03-01T01:18:19.533Z,12.33
2019-03-01T01:19:19.552Z,12.39
2019-03-01T01:20:19.567Z,12.15
2019-03-01T01:21:19.581Z,12.08
2019-03-01T01:22:19.611Z,12.04
2019-03-01T01:23:19.617Z,12.12
2019-03-01T01:24:19.634Z,12.15
2019-03-01T01:25:19.660Z,12.06
2019-03-01T01:26:19.731Z,12.08
2019-03-01T01:27:19.691Z,12.11
2019-03-01T01:28:19.711Z,12.24
2019-03-01T01:29:19.724Z,11.99
2019-03-01T01:30:19.740Z,11.82
2019-03-01T01:31:19.760Z,12.09
2019-03-01T01:32:19.774Z,12.06
2019-03-01T01:33:19.828Z,12.16
2019-03-01T01:34:19.804Z,12.33
2019-03-01T01:35:19.830Z,12.21
2019-03-01T01:36:19.940Z,12.13
2019-03-01T01:37:19.866Z,11.96
2019-03-01T01:38:19.871Z,12.11
2019-03-01T01:39:19.905Z,12.13
2019-03-01T01:40:19.909Z,12.21
2019-03-01T01:41:19.928Z,12.04
2019-03-01T01:42:19.965Z,11.99
2019-03-01T01:43:20.207Z,12.04
2019-03-01T01:44:19.985Z,12.11
2019-03-01T01:45:20.001Z,12.11
2019-03-01T01:46:20.028Z,12.12
2019-03-01T01:47:20.028Z,12.24
2019-03-01T01:48:20.048Z,12.24
2019-03-01T01:49:20.063Z,12.16
2019-03-01T01:50:20.089Z,12.11
2019-03-01T01:51:20.099Z,12.20
2019-03-01T01:52:20.122Z,12.04
2019-03-01T01:53:20.128Z,11.87
2019-03-01T01:54:20.152Z,11.70
2019-03-01T01:56:20.186Z,11.80
2019-03-01T01:57:20.206Z,12.19
2019-03-01T01:58:20.227Z,11.96
2019-03-01T01:59:20.244Z,11.83
2019-03-01T02:00:20.258Z,11.82
2019-03-01T02:01:20.287Z,11.97
2019-03-01T02:02:20.295Z,12.16
2019-03-01T02:04:20.355Z,12.15
2019-03-01T02:05:20.388Z,12.16
2019-03-01T02:06:20.427Z,12.12
2019-03-01T02:07:20.418Z,12.23
2019-03-01T02:08:20.457Z,12.19
2019-03-01T02:09:20.464Z,12.12
2019-03-01T02:10:41.475Z,11.90
2019-03-01T02:11:20.479Z,12.04
2019-03-01T02:12:20.518Z,12.11
2019-03-01T02:13:20.519Z,12.19
2019-03-01T02:14:20.537Z,12.01
2019-03-01T02:15:20.569Z,11.50
2019-03-01T02:16:41.600Z,11.70
2019-03-01T02:17:20.596Z,11.83
2019-03-01T02:18:20.715Z,12.02
2019-03-01T02:19:20.644Z,11.96
2019-03-01T02:20:20.646Z,12.01
2019-03-01T02:21:20.652Z,11.97
2019-03-01T02:22:41.712Z,11.96
2019-03-01T02:23:20.684Z,12.04
2019-03-01T02:24:20.708Z,12.08
2019-03-01T02:25:20.734Z,12.20
2019-03-01T02:26:20.703Z,12.15
2019-03-01T02:27:20.713Z,12.21
2019-03-01T02:28:20.775Z,11.93
2019-03-01T02:29:20.751Z,12.01
2019-03-01T02:30:20.771Z,12.13
2019-03-01T02:31:20.783Z,12.20
2019-03-01T02:32:20.798Z,12.27
2019-03-01T02:33:20.837Z,12.12
2019-03-01T02:34:20.835Z,12.21
2019-03-01T02:35:20.848Z,12.31
2019-03-01T02:36:20.881Z,12.11
2019-03-01T02:37:20.883Z,12.08
2019-03-01T02:38:20.914Z,12.16
2019-03-01T02:39:20.927Z,12.19
2019-03-01T02:40:20.962Z,12.42
2019-03-01T02:41:20.963Z,12.21
2019-03-01T02:42:20.969Z,12.26
2019-03-01T02:43:20.987Z,12.31
2019-03-01T02:44:21.003Z,12.31
2019-03-01T02:45:21.034Z,12.21
2019-03-01T02:46:21.037Z,12.30
2019-03-01T02:47:21.068Z,12.15
2019-03-01T02:48:21.071Z,12.19
2019-03-01T02:49:21.090Z,12.19
2019-03-01T02:50:21.106Z,12.09
2019-03-01T02:52:21.140Z,12.09
2019-03-01T02:53:21.155Z,12.13
2019-03-01T02:54:21.184Z,12.26
2019-03-01T02:55:21.195Z,11.94
2019-03-01T02:56:21.209Z,11.96
2019-03-01T02:57:21.235Z,11.75
2019-03-01T02:58:21.305Z,12.15
2019-03-01T02:59:21.267Z,12.19
2019-03-01T03:00:21.287Z,12.30
2019-03-01T03:01:21.296Z,12.29
2019-03-01T03:02:21.309Z,12.37
2019-03-01T03:03:21.328Z,12.38
2019-03-01T03:04:21.350Z,12.11
2019-03-01T03:05:21.365Z,11.96
2019-03-01T03:06:21.378Z,12.12
2019-03-01T03:07:21.414Z,12.20
2019-03-01T03:08:21.426Z,12.20
2019-03-01T03:09:21.427Z,12.21
2019-03-01T03:10:21.541Z,12.27
2019-03-01T03:11:21.462Z,12.26
2019-03-01T03:12:21.486Z,12.33
2019-03-01T03:13:21.501Z,12.42
2019-03-01T03:14:21.526Z,12.23
2019-03-01T03:16:21.596Z,12.24
2019-03-01T03:17:21.827Z,12.21
2019-03-01T03:18:21.625Z,11.90
2019-03-01T03:19:21.643Z,11.52
2019-03-01T03:20:21.769Z,11.65
2019-03-01T03:21:22.110Z,11.78
2019-03-01T03:22:21.649Z,11.82
2019-03-01T03:23:21.689Z,11.82
2019-03-01T03:24:21.701Z,12.13
2019-03-01T03:25:21.703Z,12.13
2019-03-01T03:26:21.722Z,12.20
2019-03-01T03:27:21.736Z,12.12
2019-03-01T03:28:21.760Z,12.16
2019-03-01T03:29:21.772Z,12.09
2019-03-01T03:30:21.817Z,12.13
2019-03-01T03:31:22.000Z,12.23
2019-03-01T03:32:21.821Z,12.20
2019-03-01T03:33:21.843Z,12.19
2019-03-01T03:34:21.853Z,12.26
2019-03-01T03:35:21.883Z,12.06
2019-03-01T03:36:21.889Z,11.75
2019-03-01T03:37:21.910Z,11.70
2019-03-01T03:38:21.922Z,11.89
2019-03-01T03:39:21.941Z,11.90
2019-03-01T03:40:21.959Z,12.16
2019-03-01T03:41:21.991Z,12.11
2019-03-01T03:42:22.018Z,12.16
2019-03-01T03:43:22.934Z,11.90
2019-03-01T03:44:22.023Z,12.16
2019-03-01T03:45:22.052Z,12.11
2019-03-01T03:46:22.080Z,12.05
2019-03-01T03:47:22.074Z,12.04
2019-03-01T03:48:22.111Z,12.04
2019-03-01T03:49:22.110Z,12.19
2019-03-01T03:50:22.126Z,12.13
2019-03-01T03:51:22.151Z,12.26
2019-03-01T03:52:22.215Z,12.30
2019-03-01T03:53:22.230Z,12.16
2019-03-01T03:54:22.200Z,12.21
2019-03-01T03:55:22.225Z,12.13
2019-03-01T03:56:22.232Z,12.11
2019-03-01T03:57:22.251Z,12.11
2019-03-01T03:58:22.266Z,11.93
2019-03-01T03:59:22.278Z,11.96
2019-03-01T04:00:22.304Z,11.93
2019-03-01T04:01:22.328Z,11.97
2019-03-01T04:02:22.388Z,12.11
2019-03-01T04:03:22.349Z,12.16
2019-03-01T04:04:22.365Z,12.19
2019-03-01T04:05:22.393Z,12.27
2019-03-01T04:06:22.407Z,12.08
2019-03-01T04:07:22.416Z,11.67
2019-03-01T04:08:22.449Z,11.77
2019-03-01T04:09:22.456Z,11.78
2019-03-01T04:10:22.483Z,11.86
2019-03-01T04:11:22.492Z,12.01
2019-03-01T04:12:22.613Z,12.13
2019-03-01T04:13:22.526Z,11.96
2019-03-01T04:14:22.536Z,11.99
2019-03-01T04:15:22.550Z,12.01
2019-03-01T04:16:22.570Z,11.78
2019-03-01T04:17:22.586Z,11.87
2019-03-01T04:18:22.600Z,11.97
2019-03-01T04:19:22.626Z,11.90
2019-03-01T04:20:22.635Z,12.01
2019-03-01T04:21:22.653Z,11.64
2019-03-01T04:22:22.709Z,11.75
2019-03-01T04:23:22.692Z,11.93
2019-03-01T04:24:22.706Z,11.74
2019-03-01T04:25:22.719Z,11.77
2019-03-01T04:26:22.741Z,11.86
2019-03-01T04:27:22.754Z,11.65
2019-03-01T04:28:22.773Z,11.74
2019-03-01T04:29:22.790Z,11.82
2019-03-01T04:30:22.804Z,11.68
2019-03-01T04:31:22.833Z,11.61
2019-03-01T04:32:22.839Z,11.85
2019-03-01T04:33:22.854Z,11.77
2019-03-01T04:34:22.867Z,11.47
2019-03-01T04:35:22.890Z,11.71
2019-03-01T04:36:22.900Z,11.75
2019-03-01T04:37:22.915Z,11.80
2019-03-01T04:38:22.934Z,11.77
2019-03-01T04:39:22.949Z,11.80
2019-03-01T04:40:22.977Z,11.75
2019-03-01T04:41:22.999Z,11.68
2019-03-01T04:42:23.001Z,11.52
2019-03-01T04:43:23.027Z,11.36
2019-03-01T04:44:23.163Z,11.35
2019-03-01T04:45:23.050Z,11.16
2019-03-01T04:46:23.069Z,11.27
2019-03-01T04:47:23.086Z,11.47
2019-03-01T04:48:23.110Z,11.47
2019-03-01T04:49:23.135Z,11.35
2019-03-01T04:50:23.134Z,11.35
2019-03-01T04:51:23.152Z,11.39
2019-03-01T04:52:23.170Z,11.31
2019-03-01T04:53:23.183Z,11.32
2019-03-01T04:54:23.228Z,11.21
2019-03-01T04:55:23.219Z,10.98
2019-03-01T04:56:23.238Z,11.03
2019-03-01T04:57:23.253Z,11.27
2019-03-01T04:58:23.266Z,11.43
2019-03-01T04:59:23.283Z,11.35
2019-03-01T05:00:23.300Z,11.32
2019-03-01T05:01:23.346Z,11.38
2019-03-01T05:02:23.331Z,11.38
2019-03-01T05:03:23.390Z,11.32
2019-03-01T05:04:23.451Z,11.24
2019-03-01T05:05:23.386Z,11.29
2019-03-01T05:06:23.410Z,11.32
2019-03-01T05:07:23.419Z,11.49
2019-03-01T05:08:23.439Z,11.43
2019-03-01T05:09:23.454Z,11.39
2019-03-01T05:10:23.481Z,11.27
2019-03-01T05:11:23.486Z,11.29
2019-03-01T05:12:23.503Z,11.35
2019-03-01T05:13:23.524Z,11.24
2019-03-01T05:14:23.558Z,11.25
2019-03-01T05:15:23.550Z,10.98
2019-03-01T05:16:23.575Z,10.98
2019-03-01T05:17:23.587Z,11.03
2019-03-01T05:18:23.603Z,10.94
2019-03-01T05:19:23.615Z,10.83
2019-03-01T05:20:23.649Z,10.81
2019-03-01T05:21:23.658Z,10.88
2019-03-01T05:22:23.664Z,10.81
2019-03-01T05:23:23.688Z,11.06
2019-03-01T05:24:23.738Z,11.11
2019-03-01T05:25:23.729Z,11.29
2019-03-01T05:26:23.738Z,11.27
2019-03-01T05:28:23.771Z,10.83
2019-03-01T05:29:23.791Z,10.76
2019-03-01T05:30:23.802Z,10.81
2019-03-01T05:31:23.824Z,10.83
2019-03-01T05:32:23.835Z,11.20
2019-03-01T05:33:23.852Z,11.07
2019-03-01T05:34:23.867Z,11.20
2019-03-01T05:35:23.891Z,11.27
2019-03-01T05:36:23.905Z,11.21
2019-03-01T05:37:23.927Z,11.19
2019-03-01T05:38:23.945Z,11.24
2019-03-01T05:39:23.985Z,11.11
2019-03-01T05:40:23.971Z,11.29
2019-03-01T05:41:23.987Z,11.34
2019-03-01T05:42:24.005Z,11.27
2019-03-01T05:43:24.023Z,11.28
2019-03-01T05:44:24.039Z,11.36
2019-03-01T05:45:24.055Z,11.29
2019-03-01T05:46:24.080Z,11.24
2019-03-01T05:47:24.090Z,11.28
2019-03-01T05:48:24.105Z,11.27
2019-03-01T05:49:24.126Z,11.11
2019-03-01T05:50:24.157Z,10.86
2019-03-01T05:51:24.151Z,10.73
2019-03-01T05:53:24.224Z,11.09
2019-03-01T05:54:24.245Z,11.25
2019-03-01T05:55:24.258Z,11.21
2019-03-01T05:56:24.291Z,11.27
2019-03-01T05:57:24.314Z,10.92
2019-03-01T05:58:24.293Z,10.89
2019-03-01T05:59:24.362Z,10.98
2019-03-01T06:00:24.314Z,11.02
2019-03-01T06:01:24.320Z,11.27
2019-03-01T06:02:24.338Z,11.24
2019-03-01T06:03:24.355Z,11.27
2019-03-01T06:04:24.376Z,10.99
2019-03-01T06:05:25.053Z,10.92
2019-03-01T06:06:24.404Z,11.01
2019-03-01T06:07:24.434Z,11.01
2019-03-01T06:08:24.449Z,10.91
2019-03-01T06:09:24.459Z,10.95
2019-03-01T06:10:24.467Z,10.81
2019-03-01T06:11:24.494Z,10.92
2019-03-01T06:12:24.505Z,10.88
2019-03-01T06:13:24.522Z,11.10
2019-03-01T06:14:24.643Z,11.06
2019-03-01T06:15:24.562Z,11.09
2019-03-01T06:16:24.577Z,11.01
2019-03-01T06:17:24.584Z,11.03
2019-03-01T06:18:24.609Z,10.84
2019-03-01T06:19:24.627Z,10.83
2019-03-01T06:20:24.636Z,11.13
2019-03-01T06:21:24.657Z,11.20
2019-03-01T06:22:24.674Z,11.11
2019-03-01T06:23:24.690Z,11.02
2019-03-01T06:24:24.745Z,10.99
2019-03-01T06:25:24.723Z,11.02
2019-03-01T06:26:24.745Z,11.11
2019-03-01T06:27:24.761Z,10.84
2019-03-01T06:28:24.775Z,10.71
2019-03-01T06:29:24.790Z,10.81
2019-03-01T06:30:24.805Z,10.83
2019-03-01T06:31:24.819Z,11.01
2019-03-01T06:32:24.841Z,10.99
2019-03-01T06:33:24.856Z,11.02
2019-03-01T06:34:24.881Z,10.99
2019-03-01T06:35:24.889Z,11.07
2019-03-01T06:36:24.919Z,11.02
2019-03-01T06:37:24.919Z,11.03
2019-03-01T06:38:24.937Z,10.91
2019-03-01T06:39:24.955Z,10.62
2019-03-01T06:40:24.974Z,10.60
2019-03-01T06:41:25.000Z,10.59
2019-03-01T06:42:25.000Z,10.73
2019-03-01T06:43:26.336Z,10.92
2019-03-01T06:44:25.037Z,10.84
2019-03-01T06:45:25.060Z,10.78
2019-03-01T06:46:25.094Z,10.60
2019-03-01T06:47:25.088Z,10.60
2019-03-01T06:48:25.116Z,10.88
2019-03-01T06:49:25.132Z,11.09
2019-03-01T06:50:25.140Z,11.09
2019-03-01T06:51:28.777Z,10.91
2019-03-01T06:52:25.169Z,10.81
2019-03-01T06:53:25.193Z,10.81
2019-03-01T06:54:25.210Z,10.71
2019-03-01T06:55:25.228Z,10.58
2019-03-01T06:56:25.235Z,10.58
2019-03-01T06:57:25.256Z,10.44
2019-03-01T06:58:25.270Z,10.62
2019-03-01T06:59:25.302Z,10.66
2019-03-01T07:00:25.303Z,10.73
2019-03-01T07:01:25.337Z,11.10
2019-03-01T07:02:25.335Z,11.14
2019-03-01T07:03:25.351Z,11.02
2019-03-01T07:04:25.383Z,11.10
2019-03-01T07:05:25.384Z,11.19
2019-03-01T07:06:25.438Z,11.24
2019-03-01T07:07:25.422Z,11.19
2019-03-01T07:08:25.437Z,11.07
2019-03-01T07:09:25.459Z,11.02
2019-03-01T07:10:25.469Z,11.02
2019-03-01T07:11:25.490Z,11.14
2019-03-01T07:12:25.519Z,11.35
2019-03-01T07:13:25.524Z,11.06
2019-03-01T07:14:25.533Z,11.01
2019-03-01T07:15:25.549Z,11.10
2019-03-01T07:16:25.591Z,11.01
2019-03-01T07:17:25.582Z,11.03
2019-03-01T07:18:25.599Z,11.06
2019-03-01T07:19:25.642Z,11.20
2019-03-01T07:20:25.632Z,11.03
2019-03-01T07:21:25.678Z,11.02
2019-03-01T07:22:25.673Z,11.06
2019-03-01T07:23:25.679Z,11.19
2019-03-01T07:24:25.747Z,11.16
2019-03-01T07:25:25.719Z,11.10
2019-03-01T07:26:25.732Z,11.19
2019-03-01T07:27:25.753Z,11.28
2019-03-01T07:28:25.765Z,11.34
2019-03-01T07:29:25.786Z,11.28
2019-03-01T07:30:25.810Z,11.20
2019-03-01T07:31:25.816Z,11.03
2019-03-01T07:32:25.834Z,11.09
2019-03-01T07:33:26.004Z,10.98
2019-03-01T07:34:25.864Z,11.03
2019-03-01T07:35:25.882Z,11.06
2019-03-01T07:36:25.911Z,11.11
2019-03-01T07:37:25.922Z,11.06
2019-03-01T07:38:25.933Z,10.96
2019-03-01T07:39:25.951Z,10.98
2019-03-01T07:40:25.963Z,10.88
2019-03-01T07:41:25.984Z,10.88
2019-03-01T07:42:26.012Z,10.88
2019-03-01T07:43:26.108Z,10.84
2019-03-01T07:44:26.031Z,10.73
2019-03-01T07:45:26.048Z,10.84
2019-03-01T07:46:26.067Z,10.91
2019-03-01T07:47:26.092Z,11.02
2019-03-01T07:48:26.112Z,11.03
2019-03-01T07:49:26.115Z,10.84
2019-03-01T07:50:26.128Z,10.73
2019-03-01T07:51:26.960Z,10.78
2019-03-01T07:52:26.160Z,10.84
2019-03-01T07:53:26.233Z,10.68
2019-03-01T07:54:26.192Z,10.78
2019-03-01T07:55:28.286Z,11.01
2019-03-01T07:56:26.242Z,11.10
2019-03-01T07:57:26.243Z,11.24
2019-03-01T07:58:26.770Z,11.16
2019-03-01T07:59:26.291Z,10.81
2019-03-01T08:00:26.295Z,10.81
2019-03-01T08:01:29.200Z,10.92
2019-03-01T08:02:26.331Z,11.11
2019-03-01T08:03:26.352Z,11.10
2019-03-01T08:04:28.754Z,11.11
2019-03-01T08:05:26.376Z,11.19
2019-03-01T08:06:26.398Z,11.24
2019-03-01T08:07:26.417Z,11.31
2019-03-01T08:08:26.470Z,11.11
2019-03-01T08:09:26.446Z,11.07
2019-03-01T08:10:26.475Z,11.16
2019-03-01T08:11:28.523Z,11.14
2019-03-01T08:12:26.507Z,11.20
2019-03-01T08:13:26.953Z,11.02
2019-03-01T08:14:28.077Z,11.20
2019-03-01T08:15:26.546Z,11.20
2019-03-01T08:16:26.566Z,11.34
2019-03-01T08:17:27.743Z,11.34
2019-03-01T08:18:26.623Z,11.36
2019-03-01T08:19:26.629Z,11.32
2019-03-01T08:20:26.622Z,11.35
2019-03-01T08:21:26.644Z,11.29
2019-03-01T08:22:26.663Z,11.28
2019-03-01T08:23:26.700Z,11.28
2019-03-01T08:24:26.697Z,11.35
2019-03-01T08:25:28.423Z,11.20
2019-03-01T08:26:26.728Z,11.10
2019-03-01T08:27:26.757Z,11.27
2019-03-01T08:28:26.801Z,11.29
2019-03-01T08:29:26.797Z,11.34
2019-03-01T08:30:26.793Z,11.46
2019-03-01T08:31:26.806Z,11.52
2019-03-01T08:32:27.480Z,11.67
2019-03-01T08:33:26.858Z,11.54
2019-03-01T08:34:26.870Z,11.67
2019-03-01T08:35:28.629Z,11.61
2019-03-01T08:36:26.910Z,11.65
2019-03-01T08:37:26.919Z,11.77
2019-03-01T08:38:28.810Z,11.72
2019-03-01T08:39:26.946Z,11.75
2019-03-01T08:40:26.979Z,11.78
2019-03-01T08:41:26.987Z,11.74
2019-03-01T08:42:26.992Z,11.77
2019-03-01T08:43:27.018Z,11.80
2019-03-01T08:44:27.026Z,11.54
2019-03-01T08:45:29.716Z,11.52
2019-03-01T08:46:27.056Z,11.67
2019-03-01T08:47:27.078Z,11.36
2019-03-01T08:48:27.089Z,11.64
2019-03-01T08:49:27.111Z,11.46
2019-03-01T08:50:27.124Z,11.49
2019-03-01T08:51:27.640Z,11.62
2019-03-01T08:52:27.173Z,11.52
2019-03-01T08:53:27.182Z,11.72
2019-03-01T08:54:27.633Z,11.72
2019-03-01T08:55:27.229Z,11.80
2019-03-01T08:56:27.225Z,11.74
2019-03-01T08:57:27.516Z,11.85
2019-03-01T08:58:27.258Z,11.71
2019-03-01T08:59:27.330Z,11.71
2019-03-01T09:00:28.122Z,11.78
2019-03-01T09:01:27.326Z,11.41
2019-03-01T09:02:27.346Z,11.52
2019-03-01T09:03:27.372Z,11.56
2019-03-01T09:04:27.362Z,11.68
2019-03-01T09:05:27.376Z,11.72
2019-03-01T09:06:27.388Z,11.85
2019-03-01T09:08:27.433Z,11.78
2019-03-01T09:09:27.442Z,11.61
2019-03-01T09:10:29.319Z,11.64
2019-03-01T09:11:27.478Z,11.64
2019-03-01T09:12:27.501Z,11.74
2019-03-01T09:13:27.508Z,11.57
2019-03-01T09:14:27.634Z,11.64
2019-03-01T09:15:27.546Z,11.53
2019-03-01T09:16:27.560Z,11.46
2019-03-01T09:17:27.623Z,11.31
2019-03-01T09:18:27.598Z,11.46
2019-03-01T09:19:27.613Z,11.29
2019-03-01T09:20:27.643Z,11.31
2019-03-01T09:21:28.205Z,11.32
2019-03-01T09:22:27.994Z,11.49
2019-03-01T09:23:27.688Z,11.47
2019-03-01T09:24:29.213Z,11.57
2019-03-01T09:25:27.718Z,11.56
2019-03-01T09:26:27.731Z,11.52
2019-03-01T09:27:30.167Z,11.34
2019-03-01T09:28:27.761Z,11.36
2019-03-01T09:29:27.789Z,11.32
2019-03-01T09:30:27.835Z,11.46
2019-03-01T09:31:27.821Z,11.57
2019-03-01T09:32:30.457Z,11.53
2019-03-01T09:33:27.854Z,11.65
2019-03-01T09:34:28.616Z,11.39
2019-03-01T09:35:29.688Z,11.39
2019-03-01T09:37:29.662Z,11.25
2019-03-01T09:38:27.934Z,11.24
2019-03-01T09:39:27.979Z,11.39
2019-03-01T09:40:28.854Z,11.41
2019-03-01T09:41:27.979Z,11.38
2019-03-01T09:42:28.002Z,11.52
2019-03-01T09:43:28.592Z,11.14
2019-03-01T09:44:28.033Z,11.24
2019-03-01T09:45:35.871Z,11.31
2019-03-01T09:46:28.286Z,11.29
2019-03-01T09:47:28.084Z,11.17
2019-03-01T09:48:28.098Z,11.28
2019-03-01T09:49:28.114Z,11.27
2019-03-01T09:50:28.157Z,11.41
2019-03-01T09:51:28.146Z,11.32
2019-03-01T09:52:28.171Z,11.32
2019-03-01T09:53:30.606Z,11.21
2019-03-01T09:54:28.204Z,10.81
2019-03-01T09:55:28.267Z,11.01
2019-03-01T09:56:28.245Z,11.06
2019-03-01T09:57:28.249Z,11.27
2019-03-01T09:58:28.262Z,11.28
2019-03-01T09:59:28.287Z,11.06
2019-03-01T10:00:28.302Z,10.94
2019-03-01T10:01:28.316Z,11.07
2019-03-01T10:02:28.350Z,11.07
2019-03-01T10:03:28.399Z,11.16
2019-03-01T10:04:28.363Z,11.01
2019-03-01T10:05:28.380Z,11.10
2019-03-01T10:06:37.658Z,11.03
2019-03-01T10:07:28.413Z,10.99
2019-03-01T10:08:28.444Z,11.07
2019-03-01T10:09:28.446Z,11.17
2019-03-01T10:10:28.462Z,11.02
2019-03-01T10:11:28.478Z,11.27
2019-03-01T10:12:28.531Z,11.14
2019-03-01T10:13:30.321Z,11.06
2019-03-01T10:14:28.541Z,11.24
2019-03-01T10:15:28.547Z,11.02
2019-03-01T10:16:28.570Z,11.20
2019-03-01T10:17:28.577Z,11.28
2019-03-01T10:18:28.606Z,11.31
2019-03-01T10:19:28.616Z,11.14
2019-03-01T10:20:28.626Z,11.17
2019-03-01T10:21:28.642Z,11.28
2019-03-01T10:22:28.778Z,11.27
2019-03-01T10:23:28.674Z,11.10
2019-03-01T10:25:28.716Z,11.28
2019-03-01T10:26:28.730Z,11.21
2019-03-01T10:28:28.767Z,11.25
2019-03-01T10:29:49.791Z,11.35
2019-03-01T10:30:28.803Z,11.36
2019-03-01T10:31:28.807Z,11.39
2019-03-01T10:32:28.834Z,11.41
2019-03-01T10:33:28.848Z,11.47
2019-03-01T10:34:28.859Z,11.35
2019-03-01T10:35:28.882Z,11.36
2019-03-01T10:36:28.895Z,11.21
2019-03-01T10:37:28.933Z,11.32
2019-03-01T10:39:28.938Z,11.44
2019-03-01T10:40:28.971Z,11.43
2019-03-01T10:41:28.974Z,11.49
2019-03-01T10:42:28.998Z,11.41
2019-03-01T10:43:29.012Z,11.47
2019-03-01T10:44:29.183Z,11.61
2019-03-01T10:45:29.049Z,11.64
2019-03-01T10:46:29.054Z,11.74
2019-03-01T10:47:29.072Z,11.68
2019-03-01T10:48:29.085Z,11.62
2019-03-01T10:49:29.107Z,11.72
2019-03-01T10:50:29.122Z,11.52
2019-03-01T10:52:29.201Z,11.52
2019-03-01T10:53:29.205Z,11.47
2019-03-01T10:54:29.381Z,11.50
2019-03-01T10:55:29.260Z,11.46
2019-03-01T10:56:29.286Z,11.36
2019-03-01T10:57:29.276Z,11.32
2019-03-01T10:58:29.257Z,11.41
2019-03-01T10:59:29.273Z,11.50
2019-03-01T11:00:29.289Z,11.64
2019-03-01T11:01:29.301Z,11.56
2019-03-01T11:02:29.318Z,11.50
2019-03-01T11:03:29.334Z,11.67
2019-03-01T11:04:29.453Z,11.64
2019-03-01T11:05:29.364Z,11.65
2019-03-01T11:06:29.382Z,11.43
2019-03-01T11:07:29.407Z,11.44
2019-03-01T11:08:29.415Z,11.64
2019-03-01T11:09:29.436Z,11.47
2019-03-01T11:10:29.468Z,11.50
2019-03-01T11:11:29.463Z,11.62
2019-03-01T11:12:29.494Z,11.80
2019-03-01T11:13:29.496Z,11.70
2019-03-01T11:14:29.651Z,11.75
2019-03-01T11:15:29.538Z,11.72
2019-03-01T11:16:29.561Z,11.70
2019-03-01T11:17:29.563Z,11.75
2019-03-01T11:18:29.584Z,11.87
2019-03-01T11:19:29.599Z,11.90
2019-03-01T11:20:29.615Z,11.96
2019-03-01T11:21:29.658Z,11.83
2019-03-01T11:22:29.650Z,11.94
2019-03-01T11:23:29.675Z,11.86
2019-03-01T11:24:29.685Z,11.94
2019-03-01T11:25:29.715Z,11.96
2019-03-01T11:26:29.713Z,11.80
2019-03-01T11:27:29.735Z,11.75
2019-03-01T11:28:29.745Z,11.68
2019-03-01T11:29:29.767Z,11.65
2019-03-01T11:30:29.779Z,11.77
2019-03-01T11:31:29.810Z,11.74
2019-03-01T11:32:29.819Z,11.87
2019-03-01T11:33:29.834Z,11.77
2019-03-01T11:34:29.849Z,11.82
2019-03-01T11:35:29.871Z,11.86
2019-03-01T11:36:29.891Z,11.80
2019-03-01T11:37:29.914Z,11.87
2019-03-01T11:38:29.918Z,11.77
2019-03-01T11:39:29.925Z,11.74
2019-03-01T11:40:29.942Z,11.80
2019-03-01T11:41:29.971Z,11.77
2019-03-01T11:42:29.976Z,11.75
2019-03-01T11:43:29.995Z,11.77
2019-03-01T11:44:30.018Z,11.86
2019-03-01T11:45:30.025Z,11.90
2019-03-01T11:46:30.057Z,11.93
2019-03-01T11:47:30.071Z,11.93
2019-03-01T11:48:30.097Z,11.78
2019-03-01T11:49:30.116Z,11.70
2019-03-01T11:50:30.107Z,11.82
2019-03-01T11:51:30.133Z,11.80
2019-03-01T11:52:30.143Z,11.87
2019-03-01T11:53:30.186Z,12.09
2019-03-01T11:54:30.182Z,12.04
2019-03-01T11:55:30.193Z,11.99
2019-03-01T11:56:30.247Z,11.87
2019-03-01T11:57:30.229Z,11.96
2019-03-01T11:59:30.280Z,11.89
2019-03-01T12:00:30.289Z,11.75
2019-03-01T12:01:30.293Z,11.85
2019-03-01T12:02:30.322Z,11.87
2019-03-01T12:03:30.338Z,11.93
2019-03-01T12:04:30.357Z,11.90
2019-03-01T12:05:30.359Z,12.01
2019-03-01T12:06:30.386Z,11.87
2019-03-01T12:07:30.463Z,11.96
2019-03-01T12:08:30.423Z,11.97
2019-03-01T12:09:30.440Z,11.97
2019-03-01T12:10:30.441Z,11.77
2019-03-01T12:11:30.458Z,11.89
2019-03-01T12:12:30.478Z,11.96
2019-03-01T12:13:30.501Z,11.90
2019-03-01T12:14:30.510Z,11.75
2019-03-01T12:15:30.547Z,11.59
2019-03-01T12:16:30.546Z,11.53
2019-03-01T12:17:30.562Z,11.64
2019-03-01T12:18:30.582Z,11.65
2019-03-01T12:19:30.593Z,11.65
2019-03-01T12:20:30.629Z,11.75
2019-03-01T12:21:30.649Z,11.77
2019-03-01T12:22:30.682Z,11.72
2019-03-01T12:23:30.667Z,11.77
2019-03-01T12:24:30.677Z,11.82
2019-03-01T12:25:30.709Z,11.89
2019-03-01T12:26:30.710Z,11.93
2019-03-01T12:27:30.736Z,12.09
2019-03-01T12:28:30.743Z,12.15
2019-03-01T12:29:30.760Z,12.05
2019-03-01T12:30:30.788Z,12.16
2019-03-01T12:31:30.848Z,12.21
2019-03-01T12:32:30.814Z,12.31
2019-03-01T12:33:30.826Z,12.39
2019-03-01T12:34:30.858Z,12.44
2019-03-01T12:35:30.876Z,12.54
2019-03-01T12:36:30.883Z,12.54
2019-03-01T12:37:30.892Z,12.48
2019-03-01T12:38:30.921Z,12.45
2019-03-01T12:39:30.953Z,12.70
2019-03-01T12:40:30.946Z,12.75
2019-03-01T12:41:30.972Z,12.69
2019-03-01T12:42:30.978Z,12.66
2019-03-01T12:43:30.994Z,12.69
2019-03-01T12:44:31.009Z,12.52
2019-03-01T12:45:31.022Z,12.44
2019-03-01T12:46:31.069Z,12.38
2019-03-01T12:47:31.066Z,12.42
2019-03-01T12:48:31.084Z,12.41
2019-03-01T12:50:31.112Z,12.41
2019-03-01T12:51:31.186Z,12.45
2019-03-01T12:52:31.142Z,12.21
2019-03-01T12:53:31.165Z,12.29
2019-03-01T12:54:31.182Z,12.34
2019-03-01T12:55:31.197Z,12.51
2019-03-01T12:56:31.227Z,12.57
2019-03-01T12:57:31.238Z,12.57
2019-03-01T12:58:31.250Z,12.59
2019-03-01T12:59:31.292Z,12.44
2019-03-01T13:00:31.282Z,12.51
2019-03-01T13:01:31.300Z,12.45
2019-03-01T13:02:31.391Z,12.60
2019-03-01T13:03:31.333Z,12.70
2019-03-01T13:04:31.355Z,12.56
2019-03-01T13:05:31.370Z,12.67
2019-03-01T13:06:31.386Z,12.69
2019-03-01T13:07:31.411Z,12.51
2019-03-01T13:08:31.422Z,12.64